createdAt,value
2022-11-25T00:01:11.960Z,54.26
2022-11-25T00:03:39.645Z,54.47
2022-11-25T00:06:25.872Z,54.14
2022-11-25T00:08:57.977Z,53.78
2022-11-25T00:11:24.729Z,53.97
2022-11-25T00:13:51.415Z,53.64
2022-11-25T00:16:20.866Z,53.69
2022-11-25T00:18:49.325Z,53.57
2022-11-25T00:21:18.907Z,53.22
2022-11-25T00:23:51.000Z,53.17
2022-11-25T00:26:17.809Z,53.71
2022-11-25T00:28:46.513Z,53.56
2022-11-25T00:31:19.456Z,53.95
2022-11-25T00:33:46.869Z,53.63
2022-11-25T00:36:24.032Z,53.40
2022-11-25T00:39:15.205Z,53.44
2022-11-25T00:42:01.122Z,53.39
2022-11-25T00:44:37.961Z,53.13
2022-11-25T00:47:16.548Z,53.32
2022-11-25T00:49:45.489Z,54.00
2022-11-25T00:52:17.836Z,53.63
2022-11-25T00:54:44.896Z,53.34
2022-11-25T00:57:12.277Z,53.21
2022-11-25T00:59:38.872Z,53.52
2022-11-25T01:02:05.600Z,53.51
2022-11-25T01:04:32.419Z,53.43
2022-11-25T01:07:00.051Z,53.91
2022-11-25T01:09:27.505Z,53.97
2022-11-25T01:11:54.056Z,53.81
2022-11-25T01:14:21.390Z,53.66
2022-11-25T01:16:48.871Z,53.28
2022-11-25T01:19:16.739Z,54.76
2022-11-25T01:21:43.313Z,53.89
2022-11-25T01:24:14.022Z,53.30
2022-11-25T01:26:41.184Z,53.17
2022-11-25T01:29:12.354Z,53.08
2022-11-25T01:31:38.913Z,53.36
2022-11-25T01:34:13.855Z,53.76
2022-11-25T01:36:40.875Z,53.95
2022-11-25T01:39:07.672Z,54.01
2022-11-25T01:41:35.563Z,53.90
2022-11-25T01:44:17.550Z,53.77
2022-11-25T01:46:53.180Z,53.75
2022-11-25T01:49:38.827Z,53.83
2022-11-25T01:52:10.703Z,54.02
2022-11-25T01:55:00.918Z,54.30
2022-11-25T01:57:36.989Z,53.60
2022-11-25T02:00:05.489Z,53.39
2022-11-25T02:02:44.799Z,53.47
2022-11-25T02:05:15.684Z,53.32
2022-11-25T02:07:45.818Z,53.12
2022-11-25T02:10:16.647Z,52.96
2022-11-25T02:12:45.860Z,52.62
2022-11-25T02:15:14.094Z,52.42
2022-11-25T02:17:40.972Z,52.85
2022-11-25T02:20:09.217Z,52.50
2022-11-25T02:23:19.488Z,52.73
2022-11-25T02:25:47.468Z,52.98
2022-11-25T02:28:20.636Z,53.05
2022-11-25T02:30:47.672Z,52.71
2022-11-25T02:33:15.277Z,52.89
2022-11-25T02:36:02.909Z,52.95
2022-11-25T02:38:50.795Z,53.29
2022-11-25T02:41:32.619Z,53.18
2022-11-25T02:44:04.155Z,52.79
2022-11-25T02:46:31.495Z,52.86
2022-11-25T02:49:08.789Z,52.93
2022-11-25T02:51:37.850Z,52.91
2022-11-25T02:54:05.070Z,53.00
2022-11-25T02:56:34.460Z,53.00
2022-11-25T02:59:01.729Z,52.72
2022-11-25T03:01:31.405Z,52.61
2022-11-25T03:03:58.798Z,52.75
2022-11-25T03:06:27.890Z,52.92
2022-11-25T03:08:54.629Z,52.84
2022-11-25T03:11:41.540Z,52.59
2022-11-25T03:14:08.120Z,53.27
2022-11-25T03:16:34.721Z,53.50
2022-11-25T03:19:03.728Z,53.81
2022-11-25T03:21:30.324Z,53.59
2022-11-25T03:23:56.901Z,53.79
2022-11-25T03:26:25.873Z,53.58
2022-11-25T03:28:52.670Z,52.97
2022-11-25T03:31:19.323Z,52.81
2022-11-25T03:33:45.958Z,53.07
2022-11-25T03:36:12.568Z,52.91
2022-11-25T03:38:39.073Z,52.87
2022-11-25T03:41:06.761Z,52.75
2022-11-25T03:43:35.391Z,52.58
2022-11-25T03:46:02.212Z,52.61
2022-11-25T03:48:28.857Z,52.60
2022-11-25T03:50:55.764Z,52.55
2022-11-25T03:53:24.327Z,52.78
2022-11-25T03:55:50.974Z,53.09
2022-11-25T03:58:20.515Z,53.30
2022-11-25T04:00:48.944Z,53.09
2022-11-25T04:03:15.603Z,52.97
2022-11-25T04:05:42.212Z,53.30
2022-11-25T04:08:08.789Z,52.72
2022-11-25T04:10:37.161Z,52.94
2022-11-25T04:13:05.968Z,52.81
2022-11-25T04:15:44.768Z,52.96
2022-11-25T04:18:11.501Z,52.38
2022-11-25T04:20:38.981Z,52.65
2022-11-25T04:23:07.665Z,52.35
2022-11-25T04:25:39.743Z,52.44
2022-11-25T04:28:11.850Z,52.84
2022-11-25T04:30:38.700Z,52.99
2022-11-25T04:33:05.537Z,53.07
2022-11-25T04:35:32.477Z,53.08
2022-11-25T04:37:59.016Z,53.17
2022-11-25T04:40:26.083Z,53.08
2022-11-25T04:43:09.050Z,52.78
2022-11-25T04:46:12.667Z,52.99
2022-11-25T04:48:28.768Z,52.94
2022-11-25T04:50:56.120Z,52.73
2022-11-25T04:53:22.802Z,52.79
2022-11-25T04:55:49.353Z,53.39
2022-11-25T04:58:35.968Z,52.98
2022-11-25T05:01:03.995Z,53.38
2022-11-25T05:03:31.336Z,53.28
2022-11-25T05:05:57.888Z,53.39
2022-11-25T05:08:24.740Z,53.60
2022-11-25T05:10:51.255Z,53.73
2022-11-25T05:13:17.762Z,53.80
2022-11-25T05:15:44.307Z,53.64
2022-11-25T05:18:12.318Z,53.73
2022-11-25T05:20:44.553Z,54.07
2022-11-25T05:23:11.812Z,53.83
2022-11-25T05:25:38.419Z,53.85
2022-11-25T05:28:27.128Z,53.70
2022-11-25T05:30:53.716Z,53.67
2022-11-25T05:33:20.635Z,54.16
2022-11-25T05:36:07.828Z,53.86
2022-11-25T05:38:44.326Z,54.12
2022-11-25T05:41:14.592Z,53.32
2022-11-25T05:43:43.653Z,53.34
2022-11-25T05:46:10.449Z,53.60
2022-11-25T05:48:43.235Z,53.64
2022-11-25T05:51:09.748Z,53.45
2022-11-25T05:53:37.939Z,54.28
2022-11-25T05:56:06.364Z,53.84
2022-11-25T05:59:05.995Z,53.82
2022-11-25T06:01:44.183Z,53.94
2022-11-25T06:04:11.602Z,53.71
2022-11-25T06:06:38.310Z,53.62
2022-11-25T06:09:04.825Z,53.35
2022-11-25T06:11:31.506Z,53.15
2022-11-25T06:13:58.525Z,53.40
2022-11-25T06:16:25.775Z,53.36
2022-11-25T06:19:06.538Z,53.31
2022-11-25T06:21:33.319Z,53.44
2022-11-25T06:24:00.291Z,53.25
2022-11-25T06:26:26.965Z,53.44
2022-11-25T06:28:55.214Z,53.53
2022-11-25T06:31:25.150Z,53.26
2022-11-25T06:33:59.465Z,53.74
2022-11-25T06:36:26.035Z,53.20
2022-11-25T06:38:54.098Z,53.10
2022-11-25T06:41:21.936Z,53.62
2022-11-25T06:43:48.442Z,53.30
2022-11-25T06:46:23.130Z,53.52
2022-11-25T06:48:51.622Z,53.11
2022-11-25T06:51:18.223Z,52.77
2022-11-25T06:53:44.755Z,52.69
2022-11-25T06:56:17.001Z,52.26
2022-11-25T06:58:45.501Z,51.83
2022-11-25T07:01:18.811Z,52.02
2022-11-25T07:03:46.703Z,51.96
2022-11-25T07:06:17.617Z,51.81
2022-11-25T07:08:44.999Z,51.45
2022-11-25T07:11:22.758Z,51.82
2022-11-25T07:13:53.150Z,51.39
2022-11-25T07:16:19.788Z,51.32
2022-11-25T07:18:46.504Z,51.38
2022-11-25T07:21:19.057Z,51.73
2022-11-25T07:23:46.784Z,51.94
2022-11-25T07:26:24.737Z,51.68
2022-11-25T07:28:54.647Z,51.91
2022-11-25T07:31:33.839Z,51.80
2022-11-25T07:34:03.640Z,51.71
2022-11-25T07:36:32.019Z,51.84
2022-11-25T07:39:00.171Z,51.98
2022-11-25T07:41:28.399Z,51.37
2022-11-25T07:43:57.424Z,51.65
2022-11-25T07:46:30.880Z,51.05
2022-11-25T07:49:12.331Z,50.56
2022-11-25T07:51:41.425Z,50.88
2022-11-25T07:54:10.972Z,50.61
2022-11-25T07:56:39.868Z,50.01
2022-11-25T07:59:08.562Z,50.10
2022-11-25T08:01:35.135Z,49.38
2022-11-25T08:04:01.971Z,49.44
2022-11-25T08:06:29.352Z,48.70
2022-11-25T08:08:57.877Z,48.70
2022-11-25T08:11:29.920Z,48.27
2022-11-25T08:13:58.077Z,48.32
2022-11-25T08:16:27.667Z,48.23
2022-11-25T08:18:55.473Z,48.31
2022-11-25T08:21:22.145Z,48.33
2022-11-25T08:23:49.265Z,47.99
2022-11-25T08:26:37.559Z,48.21
2022-11-25T08:29:06.343Z,48.12
2022-11-25T08:31:35.228Z,48.08
2022-11-25T08:34:02.764Z,48.31
2022-11-25T08:36:30.732Z,48.53
2022-11-25T08:38:59.447Z,48.69
2022-11-25T08:41:28.860Z,48.30
2022-11-25T08:43:57.320Z,47.49
2022-11-25T08:46:27.293Z,47.59
2022-11-25T08:48:54.013Z,48.04
2022-11-25T08:51:24.802Z,48.59
2022-11-25T08:53:51.927Z,49.32
2022-11-25T08:56:25.759Z,49.63
2022-11-25T08:58:54.167Z,49.62
2022-11-25T09:01:22.240Z,50.07
2022-11-25T09:03:51.362Z,48.71
2022-11-25T09:06:19.177Z,48.08
2022-11-25T09:08:46.645Z,47.69
2022-11-25T09:11:14.216Z,47.40
2022-11-25T09:13:40.904Z,46.74
2022-11-25T09:16:08.758Z,46.23
2022-11-25T09:18:36.980Z,47.57
2022-11-25T09:21:12.645Z,47.79
2022-11-25T09:23:40.045Z,47.97
2022-11-25T09:26:07.639Z,48.27
2022-11-25T09:28:34.868Z,48.36
2022-11-25T09:31:08.250Z,48.07
2022-11-25T09:33:35.063Z,47.97
2022-11-25T09:36:02.802Z,48.67
2022-11-25T09:38:29.695Z,48.95
2022-11-25T09:41:13.449Z,48.74
2022-11-25T09:44:11.219Z,48.45
2022-11-25T09:47:06.022Z,48.16
2022-11-25T09:50:20.109Z,47.34
2022-11-25T09:53:17.294Z,44.24
2022-11-25T09:55:47.296Z,44.69
2022-11-25T09:58:22.894Z,45.36
2022-11-25T10:00:51.460Z,45.60
2022-11-25T10:03:30.275Z,44.74
2022-11-25T10:06:25.118Z,44.87
2022-11-25T10:08:56.570Z,44.99
2022-11-25T10:11:35.601Z,44.45
2022-11-25T10:14:44.220Z,42.59
2022-11-25T10:17:10.890Z,43.08
2022-11-25T10:19:43.887Z,41.06
2022-11-25T10:22:41.334Z,41.00
2022-11-25T10:25:21.459Z,41.49
2022-11-25T10:28:20.395Z,40.95
2022-11-25T10:31:01.890Z,40.88
2022-11-25T10:33:34.562Z,39.69
2022-11-25T10:36:13.325Z,39.02
2022-11-25T10:39:03.239Z,36.45
2022-11-25T10:41:43.399Z,34.88
2022-11-25T10:44:24.944Z,32.18
2022-11-25T10:47:29.187Z,28.19
2022-11-25T10:50:11.134Z,25.19
2022-11-25T10:52:49.030Z,25.32
2022-11-25T10:55:25.949Z,26.46
2022-11-25T10:57:53.805Z,28.80
2022-11-25T11:00:38.414Z,28.06
2022-11-25T11:03:25.167Z,29.58
2022-11-25T11:05:53.692Z,31.08
2022-11-25T11:08:20.222Z,31.50
2022-11-25T11:10:54.343Z,32.63
2022-11-25T11:13:28.012Z,33.56
2022-11-25T11:15:54.778Z,33.55
2022-11-25T11:18:39.933Z,33.86
2022-11-25T11:21:20.811Z,34.29
2022-11-25T11:23:53.420Z,35.24
2022-11-25T11:26:32.134Z,35.41
2022-11-25T11:29:21.097Z,34.67
2022-11-25T11:31:56.206Z,34.95
2022-11-25T11:34:25.804Z,35.02
2022-11-25T11:37:17.504Z,34.81
2022-11-25T11:40:14.843Z,35.94
2022-11-25T11:42:59.433Z,36.24
2022-11-25T11:45:51.548Z,35.40
2022-11-25T11:49:01.681Z,34.72
2022-11-25T11:51:40.026Z,33.48
2022-11-25T11:54:17.773Z,32.09
2022-11-25T11:56:50.677Z,32.79
2022-11-25T11:59:48.983Z,32.65
2022-11-25T12:02:34.069Z,32.29
2022-11-25T12:05:04.717Z,31.04
2022-11-25T12:08:02.668Z,31.92
2022-11-25T12:11:01.245Z,29.85
2022-11-25T12:13:40.355Z,30.04
2022-11-25T12:16:15.229Z,30.15
2022-11-25T12:18:51.809Z,29.08
2022-11-25T12:21:45.403Z,28.41
2022-11-25T12:24:31.475Z,25.39
2022-11-25T12:27:05.138Z,24.34
2022-11-25T12:29:38.469Z,23.67
2022-11-25T12:32:35.605Z,24.12
2022-11-25T12:35:11.337Z,21.34
2022-11-25T12:37:49.708Z,21.97
2022-11-25T12:40:47.997Z,19.85
2022-11-25T12:43:27.759Z,19.76
2022-11-25T12:46:26.676Z,20.94
2022-11-25T12:48:56.764Z,22.79
2022-11-25T12:51:38.454Z,23.42
2022-11-25T12:54:29.980Z,23.76
2022-11-25T12:56:59.047Z,24.07
2022-11-25T12:59:48.985Z,25.12
2022-11-25T13:02:26.768Z,24.94
2022-11-25T13:05:40.657Z,25.11
2022-11-25T13:08:10.359Z,25.35
2022-11-25T13:10:53.810Z,25.52
2022-11-25T13:13:30.520Z,26.87
2022-11-25T13:16:00.309Z,28.05
2022-11-25T13:18:31.013Z,29.40
2022-11-25T13:21:06.631Z,29.32
2022-11-25T13:23:49.295Z,31.07
2022-11-25T13:26:36.592Z,31.61
2022-11-25T13:29:29.153Z,31.58
2022-11-25T13:32:05.085Z,32.05
2022-11-25T13:34:33.657Z,32.48
2022-11-25T13:37:36.988Z,33.02
2022-11-25T13:40:21.649Z,32.73
2022-11-25T13:42:48.513Z,33.20
2022-11-25T13:45:44.930Z,33.63
2022-11-25T13:48:18.362Z,34.29
2022-11-25T13:51:10.156Z,34.21
2022-11-25T13:53:35.817Z,34.51
2022-11-25T13:56:20.660Z,35.44
2022-11-25T13:59:10.406Z,35.45
2022-11-25T14:01:46.483Z,35.68
2022-11-25T14:04:15.569Z,35.34
2022-11-25T14:06:57.234Z,35.73
2022-11-25T14:09:55.763Z,35.85
2022-11-25T14:12:33.392Z,36.35
2022-11-25T14:15:00.084Z,35.78
2022-11-25T14:17:26.705Z,36.28
2022-11-25T14:20:18.160Z,37.57
2022-11-25T14:23:03.296Z,37.82
2022-11-25T14:25:48.243Z,38.45
2022-11-25T14:28:27.132Z,38.05
2022-11-25T14:31:00.721Z,39.78
2022-11-25T14:33:35.116Z,42.54
2022-11-25T14:36:09.016Z,43.45
2022-11-25T14:38:43.709Z,44.74
2022-11-25T14:41:19.777Z,46.43
2022-11-25T14:43:55.675Z,46.57
2022-11-25T14:46:25.158Z,47.61
2022-11-25T14:49:03.204Z,49.39
2022-11-25T14:51:37.523Z,50.51
2022-11-25T14:54:08.552Z,50.75
2022-11-25T14:56:36.724Z,51.28
2022-11-25T14:59:03.774Z,52.26
2022-11-25T15:01:32.460Z,51.70
2022-11-25T15:04:06.406Z,52.00
2022-11-25T15:06:34.071Z,52.37
2022-11-25T15:09:00.849Z,52.86
2022-11-25T15:11:31.471Z,53.27
2022-11-25T15:14:02.218Z,53.66
2022-11-25T15:16:38.786Z,53.53
2022-11-25T15:19:13.884Z,53.58
2022-11-25T15:22:14.464Z,54.52
2022-11-25T15:24:40.536Z,55.07
2022-11-25T15:27:20.000Z,54.50
2022-11-25T15:29:48.269Z,54.83
2022-11-25T15:32:38.835Z,54.77
2022-11-25T15:35:08.432Z,55.48
2022-11-25T15:37:34.995Z,56.34
2022-11-25T15:40:39.459Z,56.38
2022-11-25T15:43:22.467Z,56.45
2022-11-25T15:45:52.622Z,56.42
2022-11-25T15:48:28.677Z,56.72
2022-11-25T15:51:20.105Z,57.07
2022-11-25T15:53:56.074Z,56.86
2022-11-25T15:56:26.493Z,57.45
2022-11-25T15:58:57.288Z,57.33
2022-11-25T16:01:29.014Z,57.29
2022-11-25T16:04:11.340Z,56.82
2022-11-25T16:06:59.411Z,57.83
2022-11-25T16:09:28.598Z,57.17
2022-11-25T16:12:05.281Z,57.04
2022-11-25T16:14:35.228Z,57.19
2022-11-25T16:17:05.437Z,57.39
2022-11-25T16:19:38.024Z,57.36
2022-11-25T16:22:05.679Z,57.63
2022-11-25T16:24:39.713Z,58.00
2022-11-25T16:27:24.416Z,57.36
2022-11-25T16:29:54.310Z,57.57
2022-11-25T16:32:30.738Z,57.68
2022-11-25T16:35:10.067Z,57.50
2022-11-25T16:37:36.557Z,57.61
2022-11-25T16:40:03.548Z,57.80
2022-11-25T16:42:30.074Z,59.33
2022-11-25T16:44:56.581Z,58.20
2022-11-25T16:47:23.878Z,57.89
2022-11-25T16:49:50.478Z,57.72
2022-11-25T16:52:17.071Z,59.18
2022-11-25T16:54:43.841Z,59.03
2022-11-25T16:57:17.774Z,58.84
2022-11-25T16:59:45.321Z,59.03
2022-11-25T17:02:20.549Z,60.06
2022-11-25T17:04:48.217Z,59.78
2022-11-25T17:07:32.303Z,59.69
2022-11-25T17:09:59.576Z,59.57
2022-11-25T17:12:31.783Z,60.73
2022-11-25T17:15:00.353Z,60.09
2022-11-25T17:17:28.106Z,60.23
2022-11-25T17:19:54.872Z,60.11
2022-11-25T17:22:24.725Z,59.77
2022-11-25T17:24:51.701Z,60.32
2022-11-25T17:27:30.902Z,59.96
2022-11-25T17:30:00.017Z,60.17
2022-11-25T17:32:27.288Z,59.63
2022-11-25T17:34:53.875Z,60.17
2022-11-25T17:37:25.608Z,60.27
2022-11-25T17:39:53.522Z,59.54
2022-11-25T17:42:27.772Z,59.59
2022-11-25T17:44:54.597Z,59.20
2022-11-25T17:47:21.267Z,60.12
2022-11-25T17:49:49.300Z,59.96
2022-11-25T17:52:16.449Z,59.54
2022-11-25T17:54:43.043Z,59.62
2022-11-25T17:57:17.222Z,59.53
2022-11-25T17:59:43.967Z,59.58
2022-11-25T18:02:18.518Z,59.76
2022-11-25T18:04:45.226Z,59.53
2022-11-25T18:07:11.813Z,59.58
2022-11-25T18:09:38.393Z,60.03
2022-11-25T18:12:10.662Z,60.52
2022-11-25T18:14:38.723Z,60.20
2022-11-25T18:17:07.688Z,60.06
2022-11-25T18:19:34.886Z,59.15
2022-11-25T18:22:11.212Z,58.86
2022-11-25T18:24:38.268Z,58.90
2022-11-25T18:27:07.103Z,58.93
2022-11-25T18:29:33.806Z,58.70
2022-11-25T18:32:00.510Z,58.81
2022-11-25T18:34:27.712Z,58.75
2022-11-25T18:36:54.473Z,58.95
2022-11-25T18:39:21.906Z,58.90
2022-11-25T18:41:49.538Z,58.86
2022-11-25T18:44:21.716Z,58.93
2022-11-25T18:46:52.434Z,59.07
2022-11-25T18:49:19.235Z,58.77
2022-11-25T18:51:45.832Z,58.39
2022-11-25T18:54:12.374Z,58.76
2022-11-25T18:56:40.852Z,58.51
2022-11-25T18:59:15.148Z,58.75
2022-11-25T19:01:45.367Z,58.83
2022-11-25T19:04:16.797Z,58.46
2022-11-25T19:06:44.257Z,58.30
2022-11-25T19:09:11.160Z,58.60
2022-11-25T19:11:49.372Z,59.08
2022-11-25T19:14:30.018Z,58.80
2022-11-25T19:17:01.796Z,58.45
2022-11-25T19:19:28.686Z,58.71
2022-11-25T19:21:55.537Z,59.22
2022-11-25T19:24:22.114Z,58.41
2022-11-25T19:26:51.250Z,58.37
2022-11-25T19:29:22.036Z,58.44
2022-11-25T19:31:51.050Z,58.69
2022-11-25T19:34:33.376Z,58.46
2022-11-25T19:36:59.978Z,58.40
2022-11-25T19:39:27.393Z,58.57
2022-11-25T19:41:54.595Z,58.16
2022-11-25T19:44:21.271Z,58.71
2022-11-25T19:47:14.193Z,58.43
2022-11-25T19:49:36.671Z,58.13
2022-11-25T19:52:03.343Z,58.38
2022-11-25T19:54:29.850Z,58.30
2022-11-25T19:56:56.360Z,57.98
2022-11-25T19:59:22.862Z,58.24
2022-11-25T20:01:49.492Z,58.67
2022-11-25T20:04:25.208Z,59.31
2022-11-25T20:06:51.792Z,59.27
2022-11-25T20:09:18.333Z,59.86
2022-11-25T20:11:45.147Z,59.33
2022-11-25T20:14:12.392Z,59.57
2022-11-25T20:16:40.835Z,60.05
2022-11-25T20:19:16.505Z,59.60
2022-11-25T20:21:43.253Z,59.20
2022-11-25T20:24:16.828Z,58.54
2022-11-25T20:26:48.399Z,58.95
2022-11-25T20:29:24.712Z,59.35
2022-11-25T20:31:55.877Z,59.30
2022-11-25T20:34:22.487Z,59.93
2022-11-25T20:36:49.236Z,58.84
2022-11-25T20:39:18.896Z,58.26
2022-11-25T20:41:51.362Z,58.33
2022-11-25T20:44:18.905Z,57.96
2022-11-25T20:46:45.478Z,58.16
2022-11-25T20:49:21.891Z,58.51
2022-11-25T20:51:48.954Z,58.46
2022-11-25T20:54:16.639Z,58.57
2022-11-25T20:56:43.175Z,57.72
2022-11-25T20:59:20.184Z,57.71
2022-11-25T21:01:46.846Z,57.83
2022-11-25T21:04:13.455Z,57.78
2022-11-25T21:06:41.312Z,57.60
2022-11-25T21:09:16.583Z,57.96
2022-11-25T21:11:43.384Z,59.44
2022-11-25T21:14:15.531Z,59.81
2022-11-25T21:16:42.316Z,58.82
2022-11-25T21:19:08.921Z,58.65
2022-11-25T21:21:39.183Z,58.08
2022-11-25T21:24:22.473Z,58.53
2022-11-25T21:26:49.943Z,58.04
2022-11-25T21:29:17.267Z,58.13
2022-11-25T21:31:44.101Z,57.44
2022-11-25T21:34:12.658Z,58.15
2022-11-25T21:36:40.317Z,57.30
2022-11-25T21:39:25.073Z,57.31
2022-11-25T21:41:51.903Z,57.33
2022-11-25T21:44:27.628Z,57.04
2022-11-25T21:46:54.167Z,56.73
2022-11-25T21:49:21.215Z,56.46
2022-11-25T21:51:47.880Z,56.42
2022-11-25T21:54:14.394Z,56.49
2022-11-25T21:56:41.006Z,56.66
2022-11-25T21:59:11.392Z,57.05
2022-11-25T22:01:37.929Z,56.58
2022-11-25T22:04:05.048Z,56.86
2022-11-25T22:06:31.962Z,56.84
2022-11-25T22:08:58.766Z,56.72
2022-11-25T22:11:32.499Z,56.47
2022-11-25T22:14:00.758Z,56.76
2022-11-25T22:16:34.417Z,56.17
2022-11-25T22:19:01.201Z,56.35
2022-11-25T22:21:27.829Z,55.97
2022-11-25T22:23:54.531Z,56.06
2022-11-25T22:26:32.256Z,56.09
2022-11-25T22:29:00.036Z,56.23
2022-11-25T22:31:27.820Z,56.59
2022-11-25T22:33:55.251Z,57.25
2022-11-25T22:36:39.790Z,57.73
2022-11-25T22:39:18.182Z,57.62
2022-11-25T22:41:49.211Z,57.26
2022-11-25T22:44:20.477Z,56.66
2022-11-25T22:46:48.419Z,56.70
2022-11-25T22:49:27.056Z,57.19
2022-11-25T22:51:53.856Z,57.30
2022-11-25T22:54:22.176Z,56.53
2022-11-25T22:56:49.097Z,56.56
2022-11-25T22:59:15.638Z,56.20
2022-11-25T23:01:42.378Z,57.01
2022-11-25T23:04:16.018Z,56.92
2022-11-25T23:06:42.563Z,56.53
2022-11-25T23:09:18.308Z,56.49
2022-11-25T23:11:45.983Z,56.34
2022-11-25T23:14:12.660Z,57.16
2022-11-25T23:16:41.100Z,56.77
2022-11-25T23:19:15.346Z,56.21
2022-11-25T23:21:42.422Z,56.10
2022-11-25T23:24:15.120Z,55.81
2022-11-25T23:26:42.388Z,55.71
2022-11-25T23:29:08.953Z,56.32
2022-11-25T23:31:37.203Z,56.16
2022-11-25T23:34:06.045Z,56.06
2022-11-25T23:36:44.749Z,55.84
2022-11-25T23:39:19.137Z,56.34
2022-11-25T23:41:46.392Z,56.33
2022-11-25T23:44:16.165Z,56.15
2022-11-25T23:46:43.679Z,56.07
2022-11-25T23:49:30.329Z,56.46
2022-11-25T23:52:04.646Z,57.35
2022-11-25T23:54:44.000Z,57.11
2022-11-25T23:57:14.488Z,56.24
2022-11-25T23:59:41.276Z,56.24
